Nearby METAR (Airport) Reports

 

KPRN - Greenville, Alabama, USA
Distance from station: WNW 17mi, 28km
Updated: Thu, 29-Jul-2021 3:58pm CDT
NOT Current
Light rain, Clear
Light rain, Clear
 Wind from NNW
Wind: NNW 3 mph , 6 km/h
Temperature: 97°F , 36°C
Heat Index: 104°F , 40°C
Dew Point: 70°F , 21°C
Humidity: 42%
Barometer: 30.00 inHg , 1015.9 hPa
Summary: Light rain
Clouds: Clear
Visibility: 10 miles , 16 km
2021/07/29 20:58 KPRN 292058Z AUTO 33003KT 10SM -RA CLR 36/21 A3000 RMK AO2 RAB47 SLP103 P0000 60000 T03560211 56014
KTOI - Troy, Alabama, USA
Distance from station: ENE 21mi, 34km
Updated: Thu, 29-Jul-2021 5:53pm CDT
Clear
Clear
 Wind from NE
Wind: NE 5 mph , 7 km/h
Temperature: 95°F , 35°C
Heat Index: 105°F , 41°C
Dew Point: 73°F , 23°C
Humidity: 50%
Barometer: 29.99 inHg , 1015.6 hPa
Clouds: Clear
Visibility: 10 miles , 16 km
2021/07/29 22:53 KTOI 292253Z AUTO 04004KT 10SM CLR 35/23 A2999 RMK AO2 SLP148 T03500228
K79J - Andalusia/Opp Ar, Alabama, USA
Distance from station: S 29mi, 47km
Updated: Thu, 29-Jul-2021 5:56pm CDT
Clear
Clear
 Wind from N
Wind: N 5 mph , 7 km/h
Temperature: 97°F , 36°C
Heat Index: 108°F , 42°C
Dew Point: 73°F , 23°C
Humidity: 47%
Barometer: 29.97 inHg , 1014.9 hPa
Clouds: Clear
Visibility: 10 miles , 16 km
2021/07/29 22:56 K79J 292256Z AUTO 36004KT 10SM CLR 36/23 A2997 RMK AO2 SLP144 T03610233
 
KMGM - Montgomery, Alabama, USA
Distance from station: N 39mi, 63km
Updated: Thu, 29-Jul-2021 5:53pm CDT
Clear
Clear
 Wind from N
Wind: N 5 mph , 7 km/h
Temperature: 93°F , 34°C
Heat Index: 105°F , 41°C
Dew Point: 75°F , 24°C
Humidity: 56%
Barometer: 29.97 inHg , 1014.9 hPa
Clouds: Clear
Visibility: 10 miles , 16 km
2021/07/29 22:53 KMGM 292253Z 01004KT 10SM CLR 34/24 A2997 RMK AO2 SLP146 T03440239
KMXF - Maxwell Afb/Mgm, Alabama, USA
Distance from station: N 44mi, 70km
Updated: Thu, 29-Jul-2021 5:56pm CDT
Clear
Clear
 Wind from NE
Wind: NE 6 mph , 9 km/h
Temperature: 93°F , 34°C
Heat Index: 105°F , 41°C
Dew Point: 75°F , 24°C
Humidity: 56%
Barometer: 29.95 inHg , 1014.2 hPa
Clouds: Clear
Visibility: 10 miles , 16 km
2021/07/29 22:56 KMXF 292256Z 04005KT 10SM CLR 34/24 A2995 RMK AO2A SLP143 T03370169 $
KLOR - Lowe Ahp/Ft. Ruc, Alabama, USA
Distance from station: SE 44mi, 71km
Updated: Thu, 29-Jul-2021 6:30pm CDT
Partly cloudy
Partly cloudy
 Wind from calm
Wind: Calm
Temperature: 91°F , 33°C
Heat Index: 107°F , 42°C
Dew Point: 79°F , 26°C
Humidity: 67%
Barometer: 29.98 inHg , 1015.2 hPa
Clouds: Partly cloudy
Visibility: 10 miles , 16 km
Cloud details: Partly cloudy 9000 ft
2021/07/29 23:30 KLOR 292330Z AUTO 00000KT 10SM SCT090 33/26 A2998 RMK AO2 LTG DSNT W SLP133 55003
 
KGZH - Evergreen, Alabama, USA
Distance from station: WSW 46mi, 75km
Updated: Thu, 29-Jul-2021 5:53pm CDT
Clear
Clear
 Wind from N
Wind: N 3 mph , 6 km/h
Temperature: 97°F , 36°C
Heat Index: 110°F , 43°C
Dew Point: 75°F , 24°C
Humidity: 50%
Barometer: 29.98 inHg , 1015.2 hPa
Clouds: Clear
Visibility: 10 miles , 16 km
2021/07/29 22:53 KGZH 292253Z AUTO 01003KT 10SM CLR 36/24 A2998 RMK AO2 SLP146 T03560244
K0J4 - Florala Muni, Alabama, USA
Distance from station: S 47mi, 76km
Updated: Thu, 29-Jul-2021 5:58pm CDT
Few Clouds
Few Clouds
 Wind from NE
Wind: NE 6 mph , 9 km/h
Temperature: 95°F , 35°C
Heat Index: 105°F , 41°C
Dew Point: 73°F , 23°C
Humidity: 50%
Barometer: 29.99 inHg , 1015.6 hPa
Clouds: Few Clouds
Visibility: 10 miles , 16 km
Cloud details: Few Clouds 4600 ft
Few Clouds 7000 ft
2021/07/29 22:58 K0J4 292258Z AUTO 04005KT 10SM FEW046 FEW070 35/23 A2999 RMK AO2 SLP148 T03500233
KOZR - Ozark/Cairns Aaf, Alabama, USA
Distance from station: SE 49mi, 78km
Updated: Thu, 29-Jul-2021 6:20pm CDT
Partly cloudy
Partly cloudy
 Wind from ENE
Wind: ENE 3 mph , 6 km/h
Temperature: 84°F , 29°C
Heat Index: 92°F , 33°C
Dew Point: 75°F , 24°C
Humidity: 74%
Barometer: 29.98 inHg , 1015.2 hPa
Clouds: Partly cloudy
Visibility: 10 miles , 16 km
Cloud details: Partly cloudy 5000 ft
2021/07/29 23:20 KOZR 292320Z AUTO 07003KT 10SM SCT050 29/24 A2998 RMK AO2 DZB02E10RAB10E20RAB20 SLP152
 
KHEY - Ft Rucker/Hanche, Alabama, USA
Distance from station: ESE 49mi, 79km
Updated: Thu, 29-Jul-2021 6:20pm CDT
Few Clouds
Few Clouds
 Wind from calm
Wind: Calm
Temperature: 86°F , 30°C
Heat Index: 95°F , 35°C
Dew Point: 75°F , 24°C
Humidity: 70%
Barometer: 29.97 inHg , 1014.9 hPa
Clouds: Few Clouds
Visibility: 10 miles , 16 km
Cloud details: Few Clouds 5000 ft
2021/07/29 23:20 KHEY 292320Z AUTO 00000KT 10SM FEW050 30/24 A2997 RMK AO2 LTG DSNT SW SLP148 50001
KDHN - Dothan, Alabama, USA
Distance from station: ESE 61mi, 97km
Updated: Thu, 29-Jul-2021 5:53pm CDT
Clear
Clear
 Wind from WSW
Wind: WSW 6 mph , 9 km/h
Temperature: 91°F , 33°C
Heat Index: 102°F , 39°C
Dew Point: 75°F , 24°C
Humidity: 59%
Barometer: 30.01 inHg , 1016.3 hPa
Clouds: Clear
Visibility: 10 miles , 16 km
2021/07/29 22:53 KDHN 292253Z 24005KT 10SM CLR 33/24 A3001 RMK AO2 SLP154 T03280244
KCEW - Crestview, Florida, USA
Distance from station: S 66mi, 107km
Updated: Thu, 29-Jul-2021 5:53pm CDT
Few Clouds
Few Clouds
 Wind from SSW
Wind: SSW 6 mph , 9 km/h
Temperature: 84°F , 29°C
Heat Index: 89°F , 32°C
Dew Point: 72°F , 22°C
Humidity: 66%
Barometer: 29.99 inHg , 1015.6 hPa
Clouds: Few Clouds
Visibility: 10 miles , 16 km
Cloud details: Few Clouds 9500 ft
2021/07/29 22:53 KCEW 292253Z AUTO 20005KT 10SM FEW095 29/22 A2999 RMK AO2 LTG DSNT SW SLP152 T02890217
 
KEUF - Eufaula, Alabama, USA
Distance from station: ENE 73mi, 118km
Updated: Thu, 29-Jul-2021 3:58pm CDT
NOT Current
Clear
Clear
 Wind from varies
Wind: varies 3 mph , 6 km/h
Temperature: 97°F , 36°C
Heat Index: 108°F , 42°C
Dew Point: 73°F , 23°C
Humidity: 47%
Barometer: 29.98 inHg , 1015.2 hPa
Clouds: Clear
Visibility: 10 miles , 16 km
2021/07/29 20:58 KEUF 292058Z AUTO VRB03KT 10SM CLR 36/23 A2998 RMK AO2 SLP148 T03560228 56016
KJKA - Gulf Shores, Alabama, USA
Distance from station: SSW 132mi, 212km
Updated: Thu, 29-Jul-2021 6:35pm CDT
Clear
Clear
 Wind from WSW
Wind: WSW 8 mph , 13 km/h
Temperature: 88°F , 31°C
Heat Index: 100°F , 38°C
Dew Point: 77°F , 25°C
Humidity: 70%
Barometer: 29.99 inHg , 1015.6 hPa
Clouds: Clear
Visibility: 10 miles , 16 km
2021/07/29 23:35 KJKA 292335Z AUTO 25007KT 10SM CLR 31/25 A2999 RMK AO2 LTG DSNT NE T03060245
KLSF - Ft Benning/Colum, Georgia, USA
Distance from station: SNE 89mi, 143km
Updated: Thu, 29-Jul-2021 5:56pm CDT
Clear
Clear
 Wind from W
Wind: W 3 mph , 6 km/h
Temperature: 93°F , 34°C
Heat Index: 107°F , 42°C
Dew Point: 77°F , 25°C
Humidity: 59%
Barometer: 29.95 inHg , 1014.2 hPa
Clouds: Clear
Visibility: 10 miles , 16 km
2021/07/29 22:56 KLSF 292256Z AUTO 27003KT 10SM CLR 34/25 A2995 RMK AO2 SLP145 T03380249
 
KMOB - Mobile/Bates, Alabama, USA
Distance from station: SW 125mi, 202km
Updated: Thu, 29-Jul-2021 6:39pm CDT
Mostly cloudy
Mostly cloudy
 Wind from SW
Wind: SW 3 mph , 6 km/h
Temperature: 84°F , 29°C
Heat Index: 90°F , 32°C
Dew Point: 73°F , 23°C
Humidity: 70%
Barometer: 30.00 inHg , 1015.9 hPa
Clouds: Mostly cloudy
Visibility: 7 miles , 11 km
Cloud details: Partly cloudy 3200 ft
Mostly cloudy 5500 ft
Mostly cloudy 12000 ft
2021/07/29 23:39 KMOB 292339Z 23003KT 7SM SCT032 BKN055 BKN120 29/23 A3000 RMK AO2 RAB25E39 TSB18E35 CB DSNT ALQDS P0000 T02890233
KNMM - Meridian Nas, Mississippi, USA
Distance from station: WNW 151mi, 243km
Updated: Thu, 29-Jul-2021 5:56pm CDT
Partly cloudy
Partly cloudy
 Wind from NE
Wind: NE 5 mph , 7 km/h
Temperature: 93°F , 34°C
Heat Index: 107°F , 42°C
Dew Point: 77°F , 25°C
Humidity: 59%
Barometer: 29.99 inHg , 1015.6 hPa
Clouds: Partly cloudy
Visibility: 10 miles , 16 km
Cloud details: Partly cloudy 4200 ft
Partly cloudy 6000 ft
2021/07/29 22:56 KNMM 292256Z 05004KT 10SM SCT042 SCT060 34/25 A2999 RMK AO2 SLP163 T03390250
KQHY - Hurlbert (Ft Walton Bch), Florida, USA
Distance from station: S 94mi, 151km
Updated: Thu, 29-Jul-2021 5:56pm CDT
Nearby thunderstorm, Light rain, Mostly cloudy
Nearby thunderstorm, Light rain, Mostly cloudy
 Wind from W
Wind: W 3 mph , 6 km/h
Temperature: 84°F , 29°C
Heat Index: 96°F , 36°C
Dew Point: 79°F , 26°C
Humidity: 84%
Barometer: 29.99 inHg , 1015.6 hPa
Summary: Nearby thunderstorm, Light rain
Clouds: Mostly cloudy
Visibility: 8 miles , 13 km
Cloud details: Few Clouds 2200 ft
Partly cloudy 2700 ft
Mostly cloudy 4300 ft
Mostly cloudy 5500 ft
2021/07/29 22:56 KQHY 292256Z AUTO 26003KT 8SM VCTS -RA FEW022 SCT027 BKN043 BKN055 29/26 A2999 RMK AO2 RAB47 TSE09 SLP162 P0006 T02940264
 
KTCL - Tuscaloosa, Alabama, USA
Distance from station: NNW 129mi, 207km
Updated: Thu, 29-Jul-2021 5:53pm CDT
Clear
Clear
 Wind from WNW
Wind: WNW 6 mph , 9 km/h
Temperature: 93°F , 34°C
Heat Index: 100°F , 38°C
Dew Point: 72°F , 22°C
Humidity: 49%
Barometer: 29.99 inHg , 1015.6 hPa
Clouds: Clear
Visibility: 9 miles , 14 km
2021/07/29 22:53 KTCL 292253Z 30005KT 9SM CLR 34/22 A2999 RMK AO2 SLP153 T03390222
KECP - Panama City, Florida, USA
Distance from station: SSE 122mi, 196km
Updated: Thu, 29-Jul-2021 6:13pm CDT
Mostly cloudy
Mostly cloudy
 Wind from SW
Wind: SW 9 mph , 15 km/h
Temperature: 81°F , 27°C
Heat Index: 88°F , 31°C
Dew Point: 77°F , 25°C
Humidity: 89%
Barometer: 29.98 inHg , 1015.2 hPa
Clouds: Mostly cloudy
Visibility: 10 miles , 16 km
Cloud details: Mostly cloudy 4900 ft
2021/07/29 23:13 KECP 292313Z 23008KT 10SM BKN049 27/25 A2998 RMK AO2 LTG DSNT W AND NW T02670250
KCBM - Columbus Afb, Mississippi, USA
Distance from station: NW 175mi, 282km
Updated: Thu, 29-Jul-2021 5:56pm CDT
Clear
Clear
 Wind from calm
Wind: Calm
Temperature: 93°F , 34°C
Heat Index: 103°F , 39°C
Dew Point: 73°F , 23°C
Humidity: 53%
Barometer: 29.98 inHg , 1015.2 hPa
Clouds: Clear
Visibility: 10 miles , 16 km
2021/07/29 22:56 KCBM 292256Z AUTO 00000KT 10SM CLR 34/23 A2998 RMK AO2 SLP152 T03380234 $
 
KBHM - Birmingham, Alabama, USA
Distance from station: N 132mi, 212km
Updated: Thu, 29-Jul-2021 5:53pm CDT
Few Clouds
Few Clouds
 Wind from NW
Wind: NW 7 mph , 11 km/h
Temperature: 91°F , 33°C
Heat Index: 98°F , 37°C
Dew Point: 72°F , 22°C
Humidity: 52%
Barometer: 30.03 inHg , 1016.9 hPa
Clouds: Few Clouds
Visibility: 10 miles , 16 km
Cloud details: Few Clouds 25000 ft
2021/07/29 22:53 KBHM 292253Z 31006KT 10SM FEW250 33/22 A3003 RMK AO2 SLP158 T03330217
KAAF - Apalachicola, Florida, USA
Distance from station: SSE 156mi, 250km
Updated: Thu, 29-Jul-2021 5:53pm CDT
Clear
Clear
 Wind from WNW
Wind: WNW 7 mph , 11 km/h
Temperature: 84°F , 29°C
Heat Index: 98°F , 37°C
Dew Point: 81°F , 27°C
Humidity: 89%
Barometer: 29.98 inHg , 1015.2 hPa
Clouds: Clear
Visibility: 10 miles , 16 km
2021/07/29 22:53 KAAF 292253Z AUTO 29006KT 10SM CLR 29/27 A2998 RMK AO2 SLP151 T02890267
KATL - Atlanta, Georgia, USA
Distance from station: NE 177mi, 287km
Updated: Thu, 29-Jul-2021 5:52pm CDT
Partly cloudy
Partly cloudy
 Wind from W
Wind: W 8 mph , 13 km/h
Temperature: 91°F , 33°C
Heat Index: 96°F , 36°C
Dew Point: 70°F , 21°C
Humidity: 49%
Barometer: 30.00 inHg , 1015.9 hPa
Clouds: Partly cloudy
Visibility: 10 miles , 16 km
Cloud details: Few Clouds 5500 ft
Partly cloudy 25000 ft
2021/07/29 22:52 KATL 292252Z 27007KT 10SM FEW055 SCT250 33/21 A3000 RMK AO2 SLP147 T03280211
 
KGPT - Gulfport, Mississippi, USA
Distance from station: SW 192mi, 309km
Updated: Thu, 29-Jul-2021 5:53pm CDT
Few Clouds
Few Clouds
 Wind from SSW
Wind: SSW 7 mph , 11 km/h
Temperature: 90°F , 32°C
Heat Index: 104°F , 40°C
Dew Point: 77°F , 25°C
Humidity: 67%
Barometer: 29.99 inHg , 1015.6 hPa
Clouds: Few Clouds
Visibility: 10 miles , 16 km
Cloud details: Few Clouds 5000 ft
2021/07/29 22:53 KGPT 292253Z 20006KT 10SM FEW050 32/25 A2999 RMK AO2 LTG DSNT NW SLP154 T03220250
KNEW - New Orleans/Lake, Louisiana, USA
Distance from station: SW 255mi, 410km
Updated: Thu, 29-Jul-2021 6:31pm CDT
Clear
Clear
 Wind from S
Wind: S 12 mph , 19 km/h
Temperature: 82°F , 28°C
Heat Index: 87°F , 31°C
Dew Point: 73°F , 23°C
Humidity: 74%
Barometer: 30.00 inHg , 1015.9 hPa
Clouds: Clear
Visibility: 10 miles , 16 km
2021/07/29 23:31 KNEW 292331Z 17010KT 10SM CLR 28/23 A3000 RMK AO2 TSE2254B2255E10 T02830233
KP92 - Salt Point, Louisiana, USA
Distance from station: SW 347mi, 559km
Updated: Thu, 29-Jul-2021 5:59pm CDT

 Wind from varies
Wind: varies 5 mph , 7 km/h
Temperature: 90°F , 32°C
Heat Index: 107°F , 42°C
Dew Point: 79°F , 26°C
Humidity: 71%
Barometer: 29.98 inHg , 1015.2 hPa
2021/07/29 22:59 KP92 292259Z AUTO VRB04KT 32/26 A2998 RMK AO1 SLP153 T03220256